createdAt,value
2023-08-15T00:00:49.639Z,21.7
2023-08-15T00:01:58.804Z,21.7
2023-08-15T00:03:07.984Z,21.6
2023-08-15T00:04:17.152Z,21.6
2023-08-15T00:05:26.334Z,21.6
2023-08-15T00:06:35.508Z,21.6
2023-08-15T00:07:44.648Z,21.6
2023-08-15T00:08:52.852Z,21.6
2023-08-15T00:10:02.059Z,21.7
2023-08-15T00:11:11.204Z,21.7
2023-08-15T00:12:20.381Z,21.7
2023-08-15T00:13:29.540Z,21.7
2023-08-15T00:14:38.715Z,21.8
2023-08-15T00:15:47.899Z,21.7
2023-08-15T00:16:57.082Z,21.7
2023-08-15T00:18:06.237Z,21.7
2023-08-15T00:19:15.409Z,21.8
2023-08-15T00:20:24.580Z,21.9
2023-08-15T00:21:33.751Z,21.9
2023-08-15T00:23:52.093Z,21.9
2023-08-15T00:25:00.283Z,21.9
2023-08-15T00:26:09.461Z,21.9
2023-08-15T00:27:18.627Z,21.9
2023-08-15T00:28:27.808Z,21.9
2023-08-15T00:29:36.966Z,21.9
2023-08-15T00:30:46.154Z,21.9
2023-08-15T00:31:55.328Z,21.9
2023-08-15T00:33:04.489Z,22
2023-08-15T00:34:13.667Z,22
2023-08-15T00:35:22.838Z,21.9
2023-08-15T00:36:32.015Z,21.9
2023-08-15T00:37:41.182Z,21.9
2023-08-15T00:38:50.354Z,21.9
2023-08-15T00:39:58.552Z,21.9
2023-08-15T00:41:07.714Z,21.9
2023-08-15T00:42:16.888Z,21.9
2023-08-15T00:43:26.067Z,21.8
2023-08-15T00:44:35.230Z,21.8
2023-08-15T00:45:44.404Z,21.8
2023-08-15T00:46:53.568Z,21.8
2023-08-15T00:48:02.741Z,21.7
2023-08-15T00:49:11.924Z,21.7
2023-08-15T00:50:21.107Z,21.7
2023-08-15T00:51:30.261Z,21.7
2023-08-15T00:52:39.426Z,21.7
2023-08-15T00:53:48.608Z,21.7
2023-08-15T00:54:56.802Z,21.7
2023-08-15T00:56:05.976Z,21.6
2023-08-15T00:57:15.143Z,21.6
2023-08-15T00:58:24.310Z,21.6
2023-08-15T01:00:42.670Z,21.6
2023-08-15T01:01:51.834Z,21.5
2023-08-15T01:04:10.179Z,21.5
2023-08-15T01:05:19.348Z,21.4
2023-08-15T01:06:28.524Z,21.4
2023-08-15T01:07:37.691Z,21.4
2023-08-15T01:08:46.870Z,21.3
2023-08-15T01:09:55.062Z,21.3
2023-08-15T01:11:03.252Z,21.3
2023-08-15T01:12:12.428Z,21.3
2023-08-15T01:13:21.598Z,21.3
2023-08-15T01:14:30.766Z,21.2
2023-08-15T01:15:39.929Z,21.1
2023-08-15T01:16:49.117Z,21.1
2023-08-15T01:17:58.288Z,21
2023-08-15T01:19:07.480Z,21
2023-08-15T01:20:16.611Z,21
2023-08-15T01:22:34.970Z,20.9
2023-08-15T01:23:44.128Z,20.9
2023-08-15T01:26:02.488Z,20.9
2023-08-15T01:27:10.704Z,20.9
2023-08-15T01:29:28.049Z,20.8
2023-08-15T01:30:37.215Z,20.7
2023-08-15T01:31:46.392Z,20.7
2023-08-15T01:32:55.555Z,20.6
2023-08-15T01:34:04.728Z,20.6
2023-08-15T01:35:13.902Z,20.6
2023-08-15T01:36:23.066Z,20.6
2023-08-15T01:37:32.270Z,20.5
2023-08-15T01:38:41.416Z,20.5
2023-08-15T01:39:50.605Z,20.5
2023-08-15T01:40:59.761Z,20.5
2023-08-15T01:42:08.942Z,20.5
2023-08-15T01:43:17.135Z,20.5
2023-08-15T01:44:26.298Z,20.5
2023-08-15T01:45:35.541Z,20.4
2023-08-15T01:46:44.645Z,20.4
2023-08-15T01:47:53.811Z,20.4
2023-08-15T01:49:03.022Z,20.4
2023-08-15T01:50:12.172Z,20.4
2023-08-15T01:51:20.350Z,20.3
2023-08-15T01:52:29.519Z,20.3
2023-08-15T01:53:37.725Z,20.3
2023-08-15T01:54:45.920Z,20.2
2023-08-15T01:55:55.084Z,20.2
2023-08-15T01:57:04.233Z,20.1
2023-08-15T01:58:13.424Z,20.1
2023-08-15T01:59:22.598Z,20.1
2023-08-15T02:00:31.767Z,20.1
2023-08-15T02:01:40.935Z,20.1
2023-08-15T02:02:50.124Z,20.1
2023-08-15T02:03:58.320Z,20.1
2023-08-15T02:06:16.649Z,20.1
2023-08-15T02:07:25.814Z,20.1
2023-08-15T02:08:35.073Z,20
2023-08-15T02:09:44.174Z,20
2023-08-15T02:10:53.349Z,20
2023-08-15T02:12:02.528Z,20.1
2023-08-15T02:13:11.682Z,20.1
2023-08-15T02:14:20.864Z,20
2023-08-15T02:15:30.033Z,20.1
2023-08-15T02:16:39.209Z,20
2023-08-15T02:17:47.405Z,20.1
2023-08-15T02:18:55.572Z,20.1
2023-08-15T02:20:04.762Z,20.1
2023-08-15T02:21:13.924Z,20.1
2023-08-15T02:22:23.101Z,20.1
2023-08-15T02:23:32.272Z,20.1
2023-08-15T02:24:41.454Z,20
2023-08-15T02:25:50.618Z,20
2023-08-15T02:26:59.799Z,20
2023-08-15T02:28:08.966Z,20
2023-08-15T02:30:27.317Z,20
2023-08-15T02:31:36.477Z,19.9
2023-08-15T02:32:45.645Z,19.9
2023-08-15T02:33:53.855Z,19.9
2023-08-15T02:35:03.027Z,19.9
2023-08-15T02:37:21.366Z,20
2023-08-15T02:38:29.560Z,20
2023-08-15T02:39:37.740Z,20
2023-08-15T02:40:46.971Z,20.1
2023-08-15T02:41:56.075Z,20.1
2023-08-15T02:43:05.262Z,20.1
2023-08-15T02:44:14.442Z,20.1
2023-08-15T02:45:23.606Z,20.1
2023-08-15T02:46:32.778Z,20.1
2023-08-15T02:47:41.948Z,20
2023-08-15T02:48:51.121Z,20.1
2023-08-15T02:49:59.319Z,20.1
2023-08-15T02:52:16.675Z,20.1
2023-08-15T02:53:25.855Z,20.1
2023-08-15T02:55:44.191Z,20.1
2023-08-15T02:56:53.363Z,20.1
2023-08-15T02:58:02.546Z,20.1
2023-08-15T02:59:11.710Z,20.1
2023-08-15T03:00:20.890Z,20.1
2023-08-15T03:01:30.052Z,20.1
2023-08-15T03:02:39.225Z,20.1
2023-08-15T03:03:47.432Z,20.1
2023-08-15T03:04:55.615Z,20.1
2023-08-15T03:06:04.781Z,20
2023-08-15T03:07:13.936Z,20
2023-08-15T03:08:23.130Z,19.9
2023-08-15T03:09:32.310Z,20
2023-08-15T03:10:41.478Z,19.9
2023-08-15T03:11:50.644Z,19.9
2023-08-15T03:12:59.828Z,19.8
2023-08-15T03:14:08.991Z,19.8
2023-08-15T03:15:17.196Z,19.9
2023-08-15T03:16:25.361Z,19.9
2023-08-15T03:17:34.550Z,19.9
2023-08-15T03:18:43.709Z,19.9
2023-08-15T03:19:52.895Z,19.9
2023-08-15T03:21:02.059Z,20
2023-08-15T03:22:11.240Z,20
2023-08-15T03:23:20.402Z,20.1
2023-08-15T03:24:29.582Z,20.1
2023-08-15T03:25:38.746Z,20
2023-08-15T03:26:47.924Z,20
2023-08-15T03:27:57.092Z,20.1
2023-08-15T03:29:06.260Z,20
2023-08-15T03:30:15.466Z,20
2023-08-15T03:31:23.623Z,20.1
2023-08-15T03:32:32.803Z,20.1
2023-08-15T03:33:41.966Z,20.1
2023-08-15T03:34:51.132Z,20.2
2023-08-15T03:36:00.317Z,20.2
2023-08-15T03:37:09.479Z,20.2
2023-08-15T03:38:18.661Z,20.1
2023-08-15T03:39:27.842Z,20.2
2023-08-15T03:40:37.006Z,20.2
2023-08-15T03:41:46.172Z,20.3
2023-08-15T03:42:55.343Z,20.3
2023-08-15T03:44:04.537Z,20.3
2023-08-15T03:45:13.708Z,20.3
2023-08-15T03:46:21.884Z,20.4
2023-08-15T03:47:31.064Z,20.4
2023-08-15T03:48:40.224Z,20.3
2023-08-15T03:49:49.398Z,20.3
2023-08-15T03:50:58.567Z,20.3
2023-08-15T03:52:07.752Z,20.3
2023-08-15T03:53:16.921Z,20.3
2023-08-15T03:54:26.091Z,20.3
2023-08-15T03:55:35.263Z,20.3
2023-08-15T03:56:44.433Z,20.3
2023-08-15T03:57:53.604Z,20.3
2023-08-15T03:59:02.784Z,20.3
2023-08-15T04:00:11.943Z,20.3
2023-08-15T04:01:20.141Z,20.3
2023-08-15T04:02:28.345Z,20.2
2023-08-15T04:03:36.509Z,20.3
2023-08-15T04:04:45.702Z,20.3
2023-08-15T04:05:54.865Z,20.4
2023-08-15T04:07:04.025Z,20.3
2023-08-15T04:08:13.223Z,20.4
2023-08-15T04:09:22.379Z,20.3
2023-08-15T04:10:31.550Z,20.4
2023-08-15T04:11:40.740Z,20.5
2023-08-15T04:12:49.906Z,20.4
2023-08-15T04:13:59.070Z,20.4
2023-08-15T04:15:08.248Z,20.5
2023-08-15T04:16:17.415Z,20.5
2023-08-15T04:17:26.593Z,20.5
2023-08-15T04:18:34.779Z,20.5
2023-08-15T04:19:43.951Z,20.5
2023-08-15T04:20:53.132Z,20.6
2023-08-15T04:22:02.297Z,20.5
2023-08-15T04:23:11.468Z,20.5
2023-08-15T04:24:20.639Z,20.6
2023-08-15T04:25:28.832Z,20.6
2023-08-15T04:26:37.027Z,20.6
2023-08-15T04:27:46.194Z,20.6
2023-08-15T04:28:55.367Z,20.6
2023-08-15T04:30:04.536Z,20.6
2023-08-15T04:31:13.719Z,20.6
2023-08-15T04:32:22.882Z,20.6
2023-08-15T04:33:32.058Z,20.6
2023-08-15T04:34:41.229Z,20.6
2023-08-15T04:35:50.408Z,20.6
2023-08-15T04:36:59.570Z,20.6
2023-08-15T04:38:08.764Z,20.6
2023-08-15T04:39:17.932Z,20.6
2023-08-15T04:40:27.169Z,20.6
2023-08-15T04:41:35.274Z,20.7
2023-08-15T04:42:44.456Z,20.6
2023-08-15T04:43:53.624Z,20.7
2023-08-15T04:45:02.798Z,20.7
2023-08-15T04:46:11.968Z,20.7
2023-08-15T04:47:21.140Z,20.7
2023-08-15T04:48:29.329Z,20.6
2023-08-15T04:49:37.538Z,20.7
2023-08-15T04:50:46.752Z,20.7
2023-08-15T04:51:55.882Z,20.7
2023-08-15T04:53:05.039Z,20.7
2023-08-15T04:54:14.210Z,20.7
2023-08-15T04:55:23.390Z,20.8
2023-08-15T04:56:32.555Z,20.7
2023-08-15T04:57:41.728Z,20.8
2023-08-15T04:58:51.006Z,20.7
2023-08-15T05:00:00.073Z,20.7
2023-08-15T05:01:09.239Z,20.7
2023-08-15T05:02:18.408Z,20.8
2023-08-15T05:03:27.596Z,20.7
2023-08-15T05:04:35.785Z,20.8
2023-08-15T05:05:44.961Z,20.7
2023-08-15T05:06:54.118Z,20.7
2023-08-15T05:08:03.300Z,20.7
2023-08-15T05:09:12.456Z,20.7
2023-08-15T05:10:21.651Z,20.7
2023-08-15T05:11:29.842Z,20.7
2023-08-15T05:12:38.036Z,20.8
2023-08-15T05:13:46.230Z,20.8
2023-08-15T05:14:54.417Z,20.9
2023-08-15T05:16:03.595Z,20.8
2023-08-15T05:17:12.757Z,20.8
2023-08-15T05:18:21.941Z,20.9
2023-08-15T05:19:31.153Z,20.9
2023-08-15T05:20:40.279Z,20.9
2023-08-15T05:21:49.459Z,20.9
2023-08-15T05:22:58.626Z,20.9
2023-08-15T05:24:07.802Z,20.8
2023-08-15T05:25:16.977Z,20.8
2023-08-15T05:26:26.144Z,20.8
2023-08-15T05:27:35.310Z,20.8
2023-08-15T05:28:44.491Z,20.8
2023-08-15T05:29:52.681Z,20.9
2023-08-15T05:31:01.840Z,20.9
2023-08-15T05:32:11.020Z,20.9
2023-08-15T05:33:20.185Z,20.9
2023-08-15T05:34:29.365Z,20.9
2023-08-15T05:35:38.541Z,20.9
2023-08-15T05:36:47.712Z,20.9
2023-08-15T05:37:56.924Z,20.9
2023-08-15T05:39:06.061Z,20.9
2023-08-15T05:40:15.230Z,21
2023-08-15T05:41:24.403Z,21
2023-08-15T05:42:33.570Z,21
2023-08-15T05:43:42.748Z,21
2023-08-15T05:44:50.925Z,21
2023-08-15T05:46:00.152Z,21
2023-08-15T05:47:09.393Z,21.1
2023-08-15T05:48:18.448Z,21
2023-08-15T05:49:27.622Z,21.1
2023-08-15T05:50:36.786Z,21
2023-08-15T05:52:55.219Z,21.1
2023-08-15T05:54:04.317Z,21.1
2023-08-15T05:55:12.551Z,21.1
2023-08-15T05:56:21.678Z,21
2023-08-15T05:57:30.836Z,21.1
2023-08-15T05:58:40.020Z,21.1
2023-08-15T05:59:48.225Z,21.1
2023-08-15T06:00:56.413Z,21.2
2023-08-15T06:02:04.596Z,21.1
2023-08-15T06:03:13.772Z,21.1
2023-08-15T06:04:22.939Z,21.1
2023-08-15T06:05:32.113Z,21.1
2023-08-15T06:06:41.283Z,21.1
2023-08-15T06:08:59.628Z,21.3
2023-08-15T06:10:08.792Z,21.2
2023-08-15T06:11:17.984Z,21.2
2023-08-15T06:12:27.218Z,21.3
2023-08-15T06:13:36.387Z,21.3
2023-08-15T06:14:45.486Z,21.3
2023-08-15T06:15:54.662Z,21.4
2023-08-15T06:17:02.846Z,21.3
2023-08-15T06:18:12.032Z,21.4
2023-08-15T06:19:21.194Z,21.4
2023-08-15T06:20:30.375Z,21.4
2023-08-15T06:21:39.537Z,21.4
2023-08-15T06:22:48.890Z,21.4
2023-08-15T06:23:57.926Z,21.4
2023-08-15T06:25:06.076Z,21.4
2023-08-15T06:26:14.318Z,21.4
2023-08-15T06:27:23.439Z,21.4
2023-08-15T06:28:32.611Z,21.3
2023-08-15T06:29:41.783Z,21.3
2023-08-15T06:30:50.969Z,21.3
2023-08-15T06:32:00.138Z,21.3
2023-08-15T06:33:09.316Z,21.3
2023-08-15T06:34:18.505Z,21.3
2023-08-15T06:35:27.644Z,21.3
2023-08-15T06:36:36.822Z,21.3
2023-08-15T06:37:46.004Z,21.3
2023-08-15T06:38:55.166Z,21.3
2023-08-15T06:40:04.329Z,21.3
2023-08-15T06:42:21.714Z,21.4
2023-08-15T06:43:30.872Z,21.3
2023-08-15T06:44:40.050Z,21.3
2023-08-15T06:45:49.224Z,21.3
2023-08-15T06:46:58.381Z,21.4
2023-08-15T06:48:07.578Z,21.4
2023-08-15T06:49:15.758Z,21.3
2023-08-15T06:50:23.955Z,21.4
2023-08-15T06:51:32.170Z,21.3
2023-08-15T06:52:41.306Z,21.3
2023-08-15T06:53:50.485Z,21.4
2023-08-15T06:54:59.650Z,21.3
2023-08-15T06:56:08.823Z,21.4
2023-08-15T06:57:18.005Z,21.3
2023-08-15T06:58:27.169Z,21.3
2023-08-15T07:00:45.522Z,21.4
2023-08-15T07:01:54.689Z,21.4
2023-08-15T07:03:03.905Z,21.5
2023-08-15T07:04:13.041Z,21.5
2023-08-15T07:05:22.205Z,21.6
2023-08-15T07:06:31.383Z,21.8
2023-08-15T07:07:40.581Z,21.9
2023-08-15T07:08:48.747Z,21.9
2023-08-15T07:09:58.049Z,22.1
2023-08-15T07:11:07.290Z,22.1
2023-08-15T07:12:16.462Z,22
2023-08-15T07:13:25.486Z,21.9
2023-08-15T07:14:33.674Z,21.8
2023-08-15T07:15:42.037Z,21.8
2023-08-15T07:16:50.979Z,21.9
2023-08-15T07:18:00.437Z,21.9
2023-08-15T07:19:09.355Z,21.9
2023-08-15T07:20:18.730Z,22.1
2023-08-15T07:21:27.955Z,22.3
2023-08-15T07:22:37.266Z,22.6
2023-08-15T07:23:46.423Z,22.7
2023-08-15T07:24:55.427Z,22.5
2023-08-15T07:26:04.597Z,22.5
2023-08-15T07:27:13.667Z,22.8
2023-08-15T07:28:23.157Z,22.7
2023-08-15T07:29:32.231Z,22.7
2023-08-15T07:30:40.211Z,22.7
2023-08-15T07:31:49.576Z,22.8
2023-08-15T07:32:58.727Z,22.8
2023-08-15T07:34:07.871Z,22.7
2023-08-15T07:35:16.758Z,22.7
2023-08-15T07:36:26.225Z,22.6
2023-08-15T07:37:34.421Z,22.7
2023-08-15T07:38:42.694Z,22.6
2023-08-15T07:39:51.764Z,22.5
2023-08-15T07:41:00.929Z,22.4
2023-08-15T07:42:10.091Z,22.6
2023-08-15T07:43:18.364Z,22.6
2023-08-15T07:44:27.203Z,22.7
2023-08-15T07:45:36.380Z,23.2
2023-08-15T07:46:45.569Z,23.2
2023-08-15T07:47:55.036Z,23.2
2023-08-15T07:49:04.177Z,23.3
2023-08-15T07:50:13.220Z,23.1
2023-08-15T07:51:22.595Z,23.1
2023-08-15T07:52:31.404Z,23.1
2023-08-15T07:53:40.933Z,23.1
2023-08-15T07:54:49.949Z,23.1
2023-08-15T07:55:59.188Z,23.1
2023-08-15T07:57:08.495Z,23.5
2023-08-15T07:58:17.697Z,23.5
2023-08-15T07:59:25.717Z,23.7
2023-08-15T08:00:34.972Z,24.1
2023-08-15T08:01:42.826Z,23.8
2023-08-15T08:02:52.310Z,24.1
2023-08-15T08:04:00.497Z,24.3
2023-08-15T08:05:09.427Z,23.6
2023-08-15T08:06:18.846Z,23.3
2023-08-15T08:07:27.873Z,23.5
2023-08-15T08:08:37.131Z,23.1
2023-08-15T08:09:46.318Z,23.1
2023-08-15T08:10:55.296Z,22.9
2023-08-15T08:12:04.753Z,22.8
2023-08-15T08:13:13.578Z,22.8
2023-08-15T08:14:22.989Z,22.9
2023-08-15T08:15:31.906Z,23
2023-08-15T08:16:41.440Z,23
2023-08-15T08:17:50.477Z,23.3
2023-08-15T08:18:58.728Z,23.4
2023-08-15T08:20:07.861Z,23.6
2023-08-15T08:21:17.071Z,23.7
2023-08-15T08:22:25.963Z,23.8
2023-08-15T08:23:35.345Z,24
2023-08-15T08:24:44.596Z,24.1
2023-08-15T08:25:52.917Z,24.1
2023-08-15T08:27:00.909Z,23.9
2023-08-15T08:28:09.063Z,24.2
2023-08-15T08:29:18.062Z,24.3
2023-08-15T08:30:27.316Z,24.4
2023-08-15T08:31:36.606Z,24.5
2023-08-15T08:32:45.745Z,24.6
2023-08-15T08:33:54.731Z,24.5
2023-08-15T08:35:04.032Z,24.4
2023-08-15T08:36:13.257Z,24.5
2023-08-15T08:37:22.249Z,24.8
2023-08-15T08:38:31.733Z,24.7
2023-08-15T08:39:40.853Z,24.6
2023-08-15T08:40:49.771Z,24.5
2023-08-15T08:41:58.959Z,24.3
2023-08-15T08:43:07.197Z,24.5
2023-08-15T08:44:16.411Z,24.5
2023-08-15T08:45:25.496Z,24.4
2023-08-15T08:46:34.653Z,24.6
2023-08-15T08:47:43.933Z,24.6
2023-08-15T08:48:53.149Z,24.6
2023-08-15T08:50:01.470Z,24.6
2023-08-15T08:51:10.627Z,24.3
2023-08-15T08:52:18.786Z,24
2023-08-15T08:53:28.083Z,23.7
2023-08-15T08:54:36.893Z,23.7
2023-08-15T08:55:46.072Z,23.9
2023-08-15T08:56:55.252Z,23.7
2023-08-15T08:58:04.404Z,23.7
2023-08-15T08:59:13.586Z,23.8
2023-08-15T09:00:22.759Z,24.1
2023-08-15T09:01:31.932Z,24.4
2023-08-15T09:03:50.335Z,24.9
2023-08-15T09:04:59.446Z,24.9
2023-08-15T09:06:08.652Z,25
2023-08-15T09:07:16.907Z,25.4
2023-08-15T09:08:25.981Z,25.7
2023-08-15T09:09:35.223Z,25.8
2023-08-15T09:10:44.470Z,26.1
2023-08-15T09:11:53.733Z,26.2
2023-08-15T09:13:02.900Z,25.9
2023-08-15T09:14:11.940Z,25.7
2023-08-15T09:15:20.343Z,26.2
2023-08-15T09:16:28.372Z,26.5
2023-08-15T09:17:37.613Z,26.3
2023-08-15T09:18:46.776Z,26.6
2023-08-15T09:19:55.876Z,26.5
2023-08-15T09:21:04.935Z,26.6
2023-08-15T09:22:14.405Z,25.9
2023-08-15T09:23:23.604Z,25.7
2023-08-15T09:24:32.572Z,25.9
2023-08-15T09:25:41.952Z,25.5
2023-08-15T09:26:50.936Z,26
2023-08-15T09:28:00.043Z,26.1
2023-08-15T09:29:09.146Z,25.8
2023-08-15T09:30:18.604Z,26
2023-08-15T09:31:26.756Z,26
2023-08-15T09:32:35.796Z,25.7
2023-08-15T09:34:54.012Z,25.7
2023-08-15T09:36:03.551Z,25.5
2023-08-15T09:37:12.483Z,25.6
2023-08-15T09:38:21.824Z,25.9
2023-08-15T09:40:40.136Z,25.8
2023-08-15T09:41:49.392Z,25.6
2023-08-15T09:42:58.402Z,25.5
2023-08-15T09:44:07.390Z,25.6
2023-08-15T09:45:16.923Z,25.7
2023-08-15T09:46:25.050Z,25.9
2023-08-15T09:47:33.929Z,25.9
2023-08-15T09:48:43.104Z,25.9
2023-08-15T09:49:52.512Z,26
2023-08-15T09:51:01.722Z,25.9
2023-08-15T09:52:10.853Z,26.2
2023-08-15T09:53:20.189Z,26
2023-08-15T09:54:29.164Z,26
2023-08-15T09:55:38.361Z,26.3
2023-08-15T09:56:47.568Z,26.1
2023-08-15T09:57:56.794Z,26.3
2023-08-15T09:59:05.744Z,25.9
2023-08-15T10:00:15.104Z,25.6
2023-08-15T10:01:23.273Z,25.7
2023-08-15T10:02:32.202Z,25.5
2023-08-15T10:03:41.657Z,25.6
2023-08-15T10:04:50.661Z,25.4
2023-08-15T10:06:00.011Z,25.4
2023-08-15T10:07:08.876Z,25.8
2023-08-15T10:08:18.439Z,26.6
2023-08-15T10:09:27.445Z,26.4
2023-08-15T10:10:36.407Z,27
2023-08-15T10:11:45.681Z,27.6
2023-08-15T10:14:04.241Z,27.1
2023-08-15T10:15:13.239Z,26.5
2023-08-15T10:16:21.589Z,26.7
2023-08-15T10:17:30.618Z,26.1
2023-08-15T10:18:39.627Z,25.8
2023-08-15T10:19:48.935Z,26.1
2023-08-15T10:20:58.341Z,26.1
2023-08-15T10:22:07.316Z,26.7
2023-08-15T10:23:16.533Z,27
2023-08-15T10:24:25.819Z,27.5
2023-08-15T10:25:34.844Z,27.6
2023-08-15T10:26:44.049Z,27.7
2023-08-15T10:27:53.082Z,27.4
2023-08-15T10:29:02.273Z,26.4
2023-08-15T10:30:11.603Z,26.3
2023-08-15T10:31:19.587Z,26.8
2023-08-15T10:32:28.823Z,26.9
2023-08-15T10:33:37.887Z,26.9
2023-08-15T10:34:47.097Z,26.4
2023-08-15T10:35:56.388Z,26.2
2023-08-15T10:38:14.571Z,27
2023-08-15T10:39:23.738Z,26.9
2023-08-15T10:40:32.952Z,26.5
2023-08-15T10:41:42.296Z,27
2023-08-15T10:42:51.366Z,26.9
2023-08-15T10:44:00.613Z,26.6
2023-08-15T10:45:09.605Z,26
2023-08-15T10:46:18.892Z,25.9
2023-08-15T10:47:27.170Z,26.7
2023-08-15T10:48:35.355Z,27.6
2023-08-15T10:49:43.517Z,27.8
2023-08-15T10:50:52.531Z,28.1
2023-08-15T10:52:01.760Z,27.7
2023-08-15T10:53:10.903Z,27.3
2023-08-15T10:54:20.319Z,26.7
2023-08-15T10:55:29.488Z,26.8
2023-08-15T10:56:38.735Z,26.9
2023-08-15T10:57:47.569Z,27.5
2023-08-15T10:58:56.851Z,27.3
2023-08-15T11:00:05.906Z,27.3
2023-08-15T11:01:15.411Z,26.7
2023-08-15T11:02:24.586Z,27.2
2023-08-15T11:03:33.607Z,26.8
2023-08-15T11:04:41.717Z,26.3
2023-08-15T11:05:50.933Z,27.1
2023-08-15T11:06:59.965Z,27.3
2023-08-15T11:08:09.454Z,27.4
2023-08-15T11:09:18.417Z,28
2023-08-15T11:10:27.681Z,28.5
2023-08-15T11:11:37.041Z,28.7
2023-08-15T11:12:46.090Z,27.7
2023-08-15T11:13:55.158Z,27.6
2023-08-15T11:15:04.320Z,27.6
2023-08-15T11:16:13.470Z,27.4
2023-08-15T11:17:22.706Z,27.1
2023-08-15T11:18:31.865Z,27.8
2023-08-15T11:19:40.344Z,28.3
2023-08-15T11:20:48.462Z,27.7
2023-08-15T11:21:56.488Z,27
2023-08-15T11:23:05.510Z,26.8
2023-08-15T11:24:13.758Z,27.3
2023-08-15T11:26:32.248Z,26
2023-08-15T11:27:41.256Z,25.7
2023-08-15T11:28:50.736Z,26.2
2023-08-15T11:29:59.814Z,26.4
2023-08-15T11:31:08.692Z,26.2
2023-08-15T11:32:18.097Z,25.7
2023-08-15T11:33:27.249Z,25.6
2023-08-15T11:34:36.504Z,25.8
2023-08-15T11:36:54.753Z,26.2
2023-08-15T11:38:02.815Z,26.2
2023-08-15T11:39:11.159Z,26.3
2023-08-15T11:40:20.288Z,26.5
2023-08-15T11:41:29.468Z,27.2
2023-08-15T11:42:38.621Z,27.4
2023-08-15T11:43:47.722Z,27.3
2023-08-15T11:44:57.088Z,27.5
2023-08-15T11:46:05.941Z,27.8
2023-08-15T11:47:15.338Z,27.1
2023-08-15T11:49:33.743Z,26.2
2023-08-15T11:50:42.626Z,26.3
2023-08-15T11:53:01.276Z,25.7
2023-08-15T11:54:10.184Z,25.6
2023-08-15T11:55:18.471Z,25.6
2023-08-15T11:56:26.576Z,25.8
2023-08-15T11:57:36.182Z,26
2023-08-15T11:58:45.000Z,26.3
2023-08-15T11:59:54.223Z,26.7
2023-08-15T12:01:03.399Z,26.5
2023-08-15T12:02:12.739Z,26.6
2023-08-15T12:03:21.770Z,26.7
2023-08-15T12:04:31.151Z,26.9
2023-08-15T12:05:40.341Z,26.7
2023-08-15T12:06:48.152Z,26.9
2023-08-15T12:07:56.482Z,26.7
2023-08-15T12:09:05.691Z,26.9
2023-08-15T12:10:14.662Z,26.8
2023-08-15T12:11:23.935Z,26.7
2023-08-15T12:12:33.231Z,27
2023-08-15T12:13:42.240Z,27.7
2023-08-15T12:16:00.517Z,28.1
2023-08-15T12:17:09.688Z,27.5
2023-08-15T12:18:18.880Z,27.4
2023-08-15T12:19:28.231Z,27.2
2023-08-15T12:21:46.696Z,27
2023-08-15T12:22:54.686Z,26.9
2023-08-15T12:24:04.055Z,26.6
2023-08-15T12:25:11.961Z,26.7
2023-08-15T12:26:21.218Z,26.4
2023-08-15T12:27:30.439Z,26.6
2023-08-15T12:28:39.721Z,26.4
2023-08-15T12:29:48.698Z,26.5
2023-08-15T12:30:57.959Z,26.4
2023-08-15T12:32:07.033Z,26.4
2023-08-15T12:33:16.402Z,26.6
2023-08-15T12:34:24.347Z,26.6
2023-08-15T12:35:32.639Z,26.3
2023-08-15T12:36:41.818Z,26.2
2023-08-15T12:37:51.084Z,26.1
2023-08-15T12:39:00.458Z,25.8
2023-08-15T12:40:09.215Z,25.7
2023-08-15T12:41:18.546Z,25.7
2023-08-15T12:42:27.876Z,26
2023-08-15T12:43:37.059Z,26.1
2023-08-15T12:44:46.146Z,26.3
2023-08-15T12:45:54.131Z,26.7
2023-08-15T12:47:02.411Z,26.6
2023-08-15T12:48:11.739Z,26.8
2023-08-15T12:49:20.933Z,26.7
2023-08-15T12:51:39.351Z,26.4
2023-08-15T12:52:48.296Z,26.3
2023-08-15T12:53:57.576Z,26.6
2023-08-15T12:55:06.712Z,26.9
2023-08-15T12:56:15.933Z,27.2
2023-08-15T12:57:24.970Z,27.2
2023-08-15T12:58:34.138Z,27.2
2023-08-15T12:59:43.271Z,27.2
2023-08-15T13:00:52.412Z,26.6
2023-08-15T13:02:01.654Z,26.1
2023-08-15T13:03:09.914Z,26
2023-08-15T13:04:18.994Z,25.9
2023-08-15T13:06:37.493Z,26
2023-08-15T13:07:46.561Z,26
2023-08-15T13:08:54.918Z,26.2
2023-08-15T13:10:02.820Z,26.2
2023-08-15T13:11:12.316Z,26.4
2023-08-15T13:12:21.384Z,26.6
2023-08-15T13:13:30.639Z,26.5
2023-08-15T13:14:39.518Z,26.3
2023-08-15T13:15:48.847Z,26.5
2023-08-15T13:16:57.864Z,26.8
2023-08-15T13:18:07.177Z,26.9
2023-08-15T13:19:16.217Z,26.9
2023-08-15T13:20:25.455Z,26.7
2023-08-15T13:21:33.581Z,26.8
2023-08-15T13:22:41.976Z,26.8
2023-08-15T13:23:50.938Z,26.9
2023-08-15T13:25:00.359Z,27
2023-08-15T13:26:09.423Z,27.4
2023-08-15T13:27:18.667Z,27.9
2023-08-15T13:28:27.663Z,28.3
2023-08-15T13:29:37.097Z,28.8
2023-08-15T13:30:46.139Z,28.5
2023-08-15T13:31:55.356Z,28
2023-08-15T13:33:04.677Z,28
2023-08-15T13:34:13.653Z,27.3
2023-08-15T13:35:22.863Z,26.9
2023-08-15T13:36:32.049Z,26.6
2023-08-15T13:37:40.409Z,26.7
2023-08-15T13:38:49.261Z,26.3
2023-08-15T13:39:58.676Z,26.2
2023-08-15T13:41:07.706Z,26.1
2023-08-15T13:42:17.001Z,26.1
2023-08-15T13:43:25.903Z,26.1
2023-08-15T13:44:35.088Z,26.2
2023-08-15T13:45:43.368Z,26.1
2023-08-15T13:46:52.586Z,26.3
2023-08-15T13:48:00.865Z,26.3
2023-08-15T13:49:09.833Z,26.2
2023-08-15T13:50:19.114Z,26.6
2023-08-15T13:51:28.330Z,27.1
2023-08-15T13:52:37.337Z,27.1
2023-08-15T13:53:46.689Z,27
2023-08-15T13:54:55.663Z,27
2023-08-15T13:56:04.875Z,27.4
2023-08-15T13:57:14.101Z,27.7
2023-08-15T13:58:23.212Z,27.9
2023-08-15T13:59:32.363Z,27.6
2023-08-15T14:00:41.615Z,27.7
2023-08-15T14:01:50.719Z,27.8
2023-08-15T14:02:59.196Z,27.5
2023-08-15T14:04:08.291Z,26.9
2023-08-15T14:05:17.244Z,26.8
2023-08-15T14:06:26.661Z,27.3
2023-08-15T14:07:35.588Z,27.5
2023-08-15T14:08:44.929Z,27.6
2023-08-15T14:09:54.183Z,27.7
2023-08-15T14:11:03.115Z,27.4
2023-08-15T14:12:12.283Z,27.1
2023-08-15T14:13:21.519Z,27
2023-08-15T14:14:30.617Z,26.9
2023-08-15T14:15:39.874Z,27.3
2023-08-15T14:16:48.980Z,27.3
2023-08-15T14:17:57.155Z,27.5
2023-08-15T14:19:06.341Z,27.7
2023-08-15T14:20:15.575Z,27.5
2023-08-15T14:21:24.825Z,27.3
2023-08-15T14:22:34.028Z,27.2
2023-08-15T14:23:43.241Z,27.1
2023-08-15T14:24:52.656Z,26.8
2023-08-15T14:26:01.802Z,26.9
2023-08-15T14:27:10.810Z,26.8
2023-08-15T14:28:20.069Z,26.7
2023-08-15T14:29:29.196Z,26.7
2023-08-15T14:30:38.374Z,26.8
2023-08-15T14:31:47.607Z,26.8
2023-08-15T14:32:56.733Z,27.1
2023-08-15T14:34:05.957Z,27.1
2023-08-15T14:35:14.045Z,27.4
2023-08-15T14:36:23.315Z,27.6
2023-08-15T14:37:32.431Z,28
2023-08-15T14:38:41.613Z,27.6
2023-08-15T14:39:50.844Z,27.5
2023-08-15T14:40:59.943Z,27.1
2023-08-15T14:42:08.895Z,26.7
2023-08-15T14:43:18.358Z,26.6
2023-08-15T14:44:27.538Z,27
2023-08-15T14:46:45.515Z,27.6
2023-08-15T14:47:54.954Z,27.7
2023-08-15T14:50:13.257Z,28
2023-08-15T14:52:30.498Z,28.2
2023-08-15T14:53:38.824Z,28
2023-08-15T14:54:48.017Z,28.1
2023-08-15T14:55:56.271Z,28
2023-08-15T14:57:05.281Z,27.7
2023-08-15T14:58:14.295Z,27.3
2023-08-15T14:59:23.474Z,27
2023-08-15T15:00:32.834Z,26.9
2023-08-15T15:01:42.015Z,27.1
2023-08-15T15:02:51.301Z,26.8
2023-08-15T15:04:00.268Z,26.7
2023-08-15T15:05:08.796Z,27
2023-08-15T15:06:16.812Z,27.3
2023-08-15T15:07:26.061Z,27.4
2023-08-15T15:08:35.190Z,27.3
2023-08-15T15:09:44.388Z,27
2023-08-15T15:10:53.602Z,26.6
2023-08-15T15:12:02.743Z,26.6
2023-08-15T15:13:11.940Z,26.6
2023-08-15T15:14:21.148Z,26.6
2023-08-15T15:16:39.189Z,26.6
2023-08-15T15:17:48.480Z,26.7
2023-08-15T15:20:06.905Z,26.7
2023-08-15T15:21:16.193Z,26.3
2023-08-15T15:22:24.336Z,26.5
2023-08-15T15:23:33.553Z,26.6
2023-08-15T15:24:41.428Z,26.9
2023-08-15T15:25:50.789Z,27.4
2023-08-15T15:26:59.998Z,27.3
2023-08-15T15:28:09.193Z,27.4
2023-08-15T15:29:18.450Z,27.5
2023-08-15T15:30:27.314Z,27.5
2023-08-15T15:31:36.462Z,27.7
2023-08-15T15:32:45.768Z,28.1
2023-08-15T15:33:53.871Z,28.6
2023-08-15T15:35:02.178Z,28.8
2023-08-15T15:36:11.325Z,29.1
2023-08-15T15:37:20.396Z,28.1
2023-08-15T15:38:29.702Z,27.6
2023-08-15T15:39:38.843Z,27.8
2023-08-15T15:41:57.159Z,28.7
2023-08-15T15:43:06.314Z,29.1
2023-08-15T15:44:15.571Z,28.8
2023-08-15T15:45:24.792Z,28.5
2023-08-15T15:46:33.816Z,28.7
2023-08-15T15:47:43.135Z,29
2023-08-15T15:48:52.223Z,28.7
2023-08-15T15:50:00.432Z,27.8
2023-08-15T15:51:09.531Z,27.7
2023-08-15T15:52:18.540Z,28
2023-08-15T15:53:27.985Z,27
2023-08-15T15:54:37.158Z,26.9
2023-08-15T15:55:46.232Z,27.1
2023-08-15T15:56:55.461Z,26.6
2023-08-15T15:58:03.746Z,26.3
2023-08-15T15:59:11.903Z,25.8
2023-08-15T16:00:20.037Z,25.8
2023-08-15T16:02:38.149Z,25.7
2023-08-15T16:03:47.322Z,25.8
2023-08-15T16:04:56.633Z,25.6